createdAt,value
2019-05-26T00:00:34.930Z,17.40
2019-05-26T00:03:08.580Z,15.67
2019-05-26T00:05:41.047Z,18.87
2019-05-26T00:08:13.315Z,13.73
2019-05-26T00:10:45.803Z,14.43
2019-05-26T00:13:18.271Z,15.67
2019-05-26T00:15:50.965Z,16.77
2019-05-26T00:18:23.340Z,18.13
2019-05-26T00:20:56.120Z,26.90
2019-05-26T00:23:29.681Z,28.90
2019-05-26T00:26:02.241Z,26.13
2019-05-26T00:28:34.785Z,32.90
2019-05-26T00:31:07.450Z,27.87
2019-05-26T00:33:40.075Z,20.97
2019-05-26T00:36:12.695Z,20.73
2019-05-26T00:38:45.175Z,20.43
2019-05-26T00:41:17.820Z,20.47
2019-05-26T00:43:50.524Z,24.67
2019-05-26T00:46:23.055Z,16.57
2019-05-26T00:48:55.580Z,15.73
2019-05-26T00:51:28.483Z,16.80
2019-05-26T00:54:01.093Z,15.50
2019-05-26T00:56:33.710Z,14.87
2019-05-26T00:59:06.630Z,18.83
2019-05-26T01:01:39.226Z,15.30
2019-05-26T01:04:11.825Z,16.60
2019-05-26T01:06:44.295Z,16.03
2019-05-26T01:09:17.520Z,18.47
2019-05-26T01:11:51.474Z,16.13
2019-05-26T01:14:24.008Z,14.37
2019-05-26T01:16:57.975Z,17.03
2019-05-26T01:19:32.010Z,16.40
2019-05-26T01:22:06.130Z,13.67
2019-05-26T01:24:39.985Z,12.97
2019-05-26T01:27:12.715Z,16.70
2019-05-26T01:29:45.309Z,16.47
2019-05-26T01:32:17.730Z,14.63
2019-05-26T01:34:50.168Z,16.73
2019-05-26T01:37:22.771Z,17.20
2019-05-26T01:39:55.665Z,13.40
2019-05-26T01:42:28.236Z,13.10
2019-05-26T01:45:00.757Z,18.33
2019-05-26T01:47:34.645Z,15.27
2019-05-26T01:50:08.539Z,14.20
2019-05-26T01:52:41.118Z,12.60
2019-05-26T01:55:13.544Z,16.57
2019-05-26T01:57:46.375Z,13.17
2019-05-26T02:00:19.005Z,14.67
2019-05-26T02:02:51.815Z,11.03
2019-05-26T02:05:24.193Z,12.53
2019-05-26T02:07:56.935Z,15.07
2019-05-26T02:10:29.709Z,15.03
2019-05-26T02:13:02.135Z,14.13
2019-05-26T02:15:34.748Z,13.13
2019-05-26T02:18:07.863Z,17.20
2019-05-26T02:20:40.425Z,18.40
2019-05-26T02:23:13.165Z,14.87
2019-05-26T02:25:45.586Z,12.47
2019-05-26T02:28:17.990Z,16.17
2019-05-26T02:30:50.432Z,11.57
2019-05-26T02:33:22.921Z,13.03
2019-05-26T02:35:55.386Z,13.63
2019-05-26T02:38:27.851Z,12.80
2019-05-26T02:41:00.316Z,15.53
2019-05-26T02:43:33.210Z,11.17
2019-05-26T02:46:06.235Z,13.40
2019-05-26T02:48:38.755Z,13.20
2019-05-26T02:51:11.136Z,10.73
2019-05-26T02:53:43.601Z,11.90
2019-05-26T02:56:16.283Z,10.13
2019-05-26T02:58:48.850Z,12.73
2019-05-26T03:01:21.765Z,11.30
2019-05-26T03:03:55.056Z,10.33
2019-05-26T03:06:29.690Z,11.30
2019-05-26T03:09:21.172Z,12.23
2019-05-26T03:11:41.057Z,13.87
2019-05-26T03:14:14.614Z,10.93
2019-05-26T03:16:48.672Z,9.23
2019-05-26T03:19:21.380Z,12.60
2019-05-26T03:21:56.749Z,13.40
2019-05-26T03:24:30.932Z,10.07
2019-05-26T03:27:03.392Z,9.73
2019-05-26T03:29:35.905Z,10.60
2019-05-26T03:32:08.593Z,12.03
2019-05-26T03:34:41.281Z,9.33
2019-05-26T03:37:13.796Z,11.83
2019-05-26T03:39:46.712Z,9.87
2019-05-26T03:42:19.276Z,15.57
2019-05-26T03:44:51.735Z,12.50
2019-05-26T03:47:24.141Z,18.87
2019-05-26T03:49:56.757Z,11.83
2019-05-26T03:52:29.365Z,9.73
2019-05-26T03:55:02.106Z,10.77
2019-05-26T03:57:35.163Z,10.13
2019-05-26T04:00:09.685Z,10.20
2019-05-26T04:02:42.166Z,14.80
2019-05-26T04:05:15.710Z,13.80
2019-05-26T04:07:48.092Z,11.37
2019-05-26T04:10:20.807Z,10.70
2019-05-26T04:12:53.141Z,7.23
2019-05-26T04:15:26.331Z,11.93
2019-05-26T04:17:58.746Z,8.20
2019-05-26T04:20:31.352Z,11.73
2019-05-26T04:23:04.201Z,15.33
2019-05-26T04:25:37.011Z,8.27
2019-05-26T04:28:09.565Z,10.90
2019-05-26T04:30:41.950Z,11.20
2019-05-26T04:33:14.610Z,11.13
2019-05-26T04:35:47.027Z,10.67
2019-05-26T04:38:19.465Z,9.23
2019-05-26T04:40:51.860Z,10.73
2019-05-26T04:43:24.401Z,13.50
2019-05-26T04:45:56.796Z,9.73
2019-05-26T04:48:29.354Z,10.70
2019-05-26T04:51:02.727Z,10.80
2019-05-26T04:53:35.712Z,9.87
2019-05-26T04:56:08.145Z,9.00
2019-05-26T04:58:40.672Z,11.30
2019-05-26T05:01:13.076Z,8.93
2019-05-26T05:03:45.516Z,10.93
2019-05-26T05:06:17.980Z,10.13
2019-05-26T05:08:50.706Z,9.17
2019-05-26T05:11:23.285Z,10.50
2019-05-26T05:13:55.815Z,11.00
2019-05-26T05:16:28.590Z,9.13
2019-05-26T05:19:00.989Z,7.23
2019-05-26T05:21:33.535Z,11.70
2019-05-26T05:24:06.010Z,10.07
2019-05-26T05:26:38.635Z,9.13
2019-05-26T05:29:11.063Z,12.50
2019-05-26T05:31:43.621Z,9.63
2019-05-26T05:34:16.131Z,11.13
2019-05-26T05:36:48.754Z,9.47
2019-05-26T05:39:21.275Z,8.80
2019-05-26T05:41:53.866Z,9.10
2019-05-26T05:44:26.560Z,11.03
2019-05-26T05:46:59.077Z,8.33
2019-05-26T05:49:31.489Z,8.97
2019-05-26T05:52:05.430Z,12.37
2019-05-26T05:54:38.094Z,10.60
2019-05-26T05:57:10.750Z,9.50
2019-05-26T05:59:43.110Z,14.80
2019-05-26T06:02:15.518Z,12.60
2019-05-26T06:04:48.080Z,13.23
2019-05-26T06:07:20.905Z,9.13
2019-05-26T06:09:54.135Z,7.67
2019-05-26T06:12:26.625Z,8.03
2019-05-26T06:14:59.090Z,11.23
2019-05-26T06:17:31.890Z,8.63
2019-05-26T06:20:06.132Z,9.40
2019-05-26T06:22:38.770Z,9.23
2019-05-26T06:25:11.575Z,8.70
2019-05-26T06:27:44.292Z,18.42
2019-05-26T06:30:17.400Z,12.20
2019-05-26T06:32:50.030Z,14.83
2019-05-26T06:35:22.580Z,11.65
2019-05-26T06:37:55.140Z,7.10
2019-05-26T06:40:27.673Z,10.65
2019-05-26T06:43:00.491Z,9.73
2019-05-26T06:45:34.014Z,7.35
2019-05-26T06:48:06.575Z,7.97
2019-05-26T06:50:39.045Z,8.73
2019-05-26T06:53:11.745Z,8.25
2019-05-26T06:55:44.116Z,6.20
2019-05-26T06:58:16.860Z,10.98
2019-05-26T07:00:49.590Z,5.10
2019-05-26T07:03:22.278Z,10.18
2019-05-26T07:05:55.125Z,6.28
2019-05-26T07:08:27.875Z,10.72
2019-05-26T07:11:00.751Z,6.22
2019-05-26T07:13:33.255Z,10.88
2019-05-26T07:16:06.625Z,5.85
2019-05-26T07:18:39.082Z,9.65
2019-05-26T07:21:11.850Z,14.33
2019-05-26T07:23:44.310Z,7.30
2019-05-26T07:26:16.815Z,6.35
2019-05-26T07:28:49.745Z,5.60
2019-05-26T07:31:22.733Z,7.15
2019-05-26T07:33:55.367Z,6.37
2019-05-26T07:36:27.999Z,7.20
2019-05-26T07:39:00.580Z,6.37
2019-05-26T07:41:33.290Z,4.37
2019-05-26T07:44:05.966Z,9.05
2019-05-26T07:46:38.515Z,6.25
2019-05-26T07:49:10.895Z,7.17
2019-05-26T07:51:44.750Z,9.30
2019-05-26T07:54:25.716Z,13.78
2019-05-26T07:56:51.716Z,9.60
2019-05-26T07:59:24.106Z,9.08
2019-05-26T08:01:56.740Z,11.90
2019-05-26T08:04:29.440Z,8.88
2019-05-26T08:07:01.898Z,9.13
2019-05-26T08:09:34.492Z,10.35
2019-05-26T08:12:07.495Z,4.33
2019-05-26T08:14:39.905Z,10.88
2019-05-26T08:17:12.586Z,5.78
2019-05-26T08:19:45.110Z,3.70
2019-05-26T08:22:17.655Z,6.92
2019-05-26T08:24:50.412Z,8.30
2019-05-26T08:27:24.180Z,10.90
2019-05-26T08:29:57.135Z,7.12
2019-05-26T08:32:29.660Z,7.72
2019-05-26T08:35:02.176Z,7.78
2019-05-26T08:37:35.651Z,13.13
2019-05-26T08:40:21.196Z,5.62
2019-05-26T08:42:54.351Z,7.85
2019-05-26T08:45:27.010Z,9.80
2019-05-26T08:47:59.615Z,5.50
2019-05-26T08:50:34.481Z,3.83
2019-05-26T08:53:06.526Z,8.23
2019-05-26T08:55:39.310Z,6.28
2019-05-26T08:58:11.976Z,5.95
2019-05-26T09:00:44.440Z,8.30
2019-05-26T09:03:17.115Z,5.87
2019-05-26T09:05:50.210Z,7.65
2019-05-26T09:08:22.547Z,8.03
2019-05-26T09:10:55.205Z,6.80
2019-05-26T09:13:27.965Z,7.47
2019-05-26T09:16:00.460Z,3.67
2019-05-26T09:18:33.008Z,6.12
2019-05-26T09:21:05.775Z,8.10
2019-05-26T09:23:38.355Z,6.40
2019-05-26T09:26:11.070Z,7.03
2019-05-26T09:28:45.056Z,6.35
2019-05-26T09:31:17.781Z,5.53
2019-05-26T09:33:50.403Z,7.00
2019-05-26T09:36:22.960Z,7.53
2019-05-26T09:38:55.405Z,4.90
2019-05-26T09:41:28.010Z,5.12
2019-05-26T09:44:00.570Z,5.15
2019-05-26T09:46:33.037Z,6.25
2019-05-26T09:49:05.772Z,3.92
2019-05-26T09:51:38.412Z,13.70
2019-05-26T09:54:12.705Z,3.98
2019-05-26T09:56:45.130Z,8.43
2019-05-26T09:59:17.801Z,5.17
2019-05-26T10:01:50.179Z,10.93
2019-05-26T10:04:22.970Z,4.97
2019-05-26T10:06:55.675Z,6.42
2019-05-26T10:09:28.421Z,6.08
2019-05-26T10:12:00.870Z,11.83
2019-05-26T10:14:33.800Z,4.60
2019-05-26T10:17:06.470Z,3.95
2019-05-26T10:19:39.236Z,3.45
2019-05-26T10:22:11.892Z,3.52
2019-05-26T10:24:44.506Z,5.97
2019-05-26T10:27:17.385Z,6.47
2019-05-26T10:29:50.095Z,9.75
2019-05-26T10:32:22.715Z,5.87
2019-05-26T10:34:55.160Z,4.78
2019-05-26T10:37:29.645Z,3.90
2019-05-26T10:40:02.414Z,5.58
2019-05-26T10:42:36.630Z,3.20
2019-05-26T10:45:11.562Z,5.30
2019-05-26T10:47:44.261Z,3.20
2019-05-26T10:50:18.335Z,2.92
2019-05-26T10:52:51.125Z,6.10
2019-05-26T10:55:23.422Z,6.75
2019-05-26T10:57:56.309Z,3.52
2019-05-26T11:00:32.814Z,3.92
2019-05-26T11:03:04.209Z,4.87
2019-05-26T11:05:36.596Z,5.47
2019-05-26T11:08:09.350Z,10.48
2019-05-26T11:10:41.740Z,2.83
2019-05-26T11:13:14.576Z,11.12
2019-05-26T11:15:47.836Z,2.87
2019-05-26T11:18:20.599Z,4.80
2019-05-26T11:20:53.281Z,3.25
2019-05-26T11:23:25.830Z,5.25
2019-05-26T11:25:59.469Z,3.92
2019-05-26T11:28:32.126Z,10.43
2019-05-26T11:31:04.741Z,2.45
2019-05-26T11:33:37.586Z,2.15
2019-05-26T11:36:09.975Z,4.05
2019-05-26T11:38:42.590Z,3.37
2019-05-26T11:41:15.766Z,3.27
2019-05-26T11:43:48.476Z,4.83
2019-05-26T11:46:21.187Z,5.12
2019-05-26T11:48:53.875Z,4.95
2019-05-26T11:51:26.458Z,5.03
2019-05-26T11:53:58.962Z,4.92
2019-05-26T11:56:31.496Z,7.80
2019-05-26T11:59:04.366Z,4.22
2019-05-26T12:01:37.214Z,7.08
2019-05-26T12:04:10.006Z,4.15
2019-05-26T12:06:42.427Z,2.62
2019-05-26T12:09:15.072Z,5.83
2019-05-26T12:11:47.610Z,3.87
2019-05-26T12:14:33.655Z,2.40
2019-05-26T12:16:54.490Z,5.80
2019-05-26T12:19:26.975Z,5.00
2019-05-26T12:21:59.455Z,4.92
2019-05-26T12:24:31.982Z,3.98
2019-05-26T12:27:04.555Z,6.40
2019-05-26T12:29:37.040Z,4.90
2019-05-26T12:32:09.585Z,2.25
2019-05-26T12:34:43.445Z,7.53
2019-05-26T12:37:16.134Z,5.75
2019-05-26T12:39:48.858Z,6.28
2019-05-26T12:42:21.410Z,4.22
2019-05-26T12:44:54.110Z,2.08
2019-05-26T12:47:26.635Z,8.43
2019-05-26T12:49:59.489Z,3.83
2019-05-26T12:52:32.130Z,4.67
2019-05-26T12:55:09.513Z,5.72
2019-05-26T12:57:40.792Z,9.45
2019-05-26T13:00:14.536Z,4.97
2019-05-26T13:02:47.867Z,5.17
2019-05-26T13:05:21.975Z,2.52
2019-05-26T13:07:54.555Z,16.30
2019-05-26T13:10:27.405Z,2.27
2019-05-26T13:12:59.905Z,3.87
2019-05-26T13:15:32.675Z,8.28
2019-05-26T13:18:05.281Z,4.28
2019-05-26T13:20:37.750Z,9.93
2019-05-26T13:23:10.335Z,2.70
2019-05-26T13:25:42.860Z,2.25
2019-05-26T13:28:15.422Z,2.70
2019-05-26T13:30:48.040Z,9.50
2019-05-26T13:33:20.648Z,6.85
2019-05-26T13:35:53.159Z,4.00
2019-05-26T13:38:25.695Z,3.17
2019-05-26T13:40:58.270Z,1.57
2019-05-26T13:43:30.972Z,2.55
2019-05-26T13:46:03.505Z,3.72
2019-05-26T13:48:36.167Z,2.20
2019-05-26T13:51:08.805Z,5.30
2019-05-26T13:53:41.480Z,2.10
2019-05-26T13:56:15.105Z,2.77
2019-05-26T13:58:47.630Z,7.97
2019-05-26T14:01:20.085Z,3.95
2019-05-26T14:03:52.686Z,3.75
2019-05-26T14:06:25.220Z,4.08
2019-05-26T14:08:57.965Z,6.97
2019-05-26T14:11:30.475Z,2.95
2019-05-26T14:14:04.800Z,3.25
2019-05-26T14:16:38.243Z,9.15
2019-05-26T14:19:10.835Z,2.42
2019-05-26T14:21:44.555Z,3.15
2019-05-26T14:24:17.413Z,4.00
2019-05-26T14:26:50.019Z,2.67
2019-05-26T14:29:22.905Z,2.55
2019-05-26T14:31:55.521Z,3.58
2019-05-26T14:34:28.212Z,7.80
2019-05-26T14:37:00.973Z,7.00
2019-05-26T14:39:34.141Z,13.48
2019-05-26T14:42:06.850Z,5.67
2019-05-26T14:44:39.320Z,4.62
2019-05-26T14:47:11.888Z,2.87
2019-05-26T14:49:44.450Z,5.10
2019-05-26T14:52:16.933Z,2.80
2019-05-26T14:54:49.841Z,4.50
2019-05-26T14:57:22.475Z,1.50
2019-05-26T14:59:55.008Z,3.15
2019-05-26T15:02:27.721Z,3.83
2019-05-26T15:05:00.156Z,4.42
2019-05-26T15:07:32.685Z,3.77
2019-05-26T15:10:08.775Z,2.80
2019-05-26T15:12:41.460Z,4.62
2019-05-26T15:15:14.466Z,3.70
2019-05-26T15:17:47.086Z,4.60
2019-05-26T15:20:20.174Z,1.95
2019-05-26T15:22:52.980Z,1.20
2019-05-26T15:25:25.631Z,4.08
2019-05-26T15:27:58.012Z,2.00
2019-05-26T15:30:30.510Z,9.18
2019-05-26T15:33:02.978Z,2.25
2019-05-26T15:35:35.335Z,2.37
2019-05-26T15:38:07.915Z,3.20
2019-05-26T15:40:40.326Z,2.42
2019-05-26T15:43:12.873Z,2.58
2019-05-26T15:45:45.490Z,4.00
2019-05-26T15:48:18.112Z,6.85
2019-05-26T15:50:52.065Z,3.58
2019-05-26T15:53:24.597Z,7.08
2019-05-26T15:55:57.170Z,8.10
2019-05-26T15:58:29.975Z,7.50
2019-05-26T16:01:02.400Z,6.67
2019-05-26T16:03:35.160Z,5.60
2019-05-26T16:06:07.890Z,7.55
2019-05-26T16:08:41.624Z,6.92
2019-05-26T16:11:14.586Z,2.15
2019-05-26T16:13:47.367Z,5.37
2019-05-26T16:16:19.927Z,5.47
2019-05-26T16:18:52.570Z,3.00
2019-05-26T16:21:28.373Z,3.95
2019-05-26T16:23:59.420Z,3.80
2019-05-26T16:26:32.050Z,5.53
2019-05-26T16:29:05.570Z,10.55
2019-05-26T16:31:38.072Z,7.75
2019-05-26T16:34:10.750Z,6.47
2019-05-26T16:36:43.468Z,3.40
2019-05-26T16:39:17.010Z,5.08
2019-05-26T16:41:49.526Z,6.90
2019-05-26T16:44:22.173Z,2.33
2019-05-26T16:46:56.822Z,5.00
2019-05-26T16:49:29.185Z,4.83
2019-05-26T16:52:02.805Z,6.92
2019-05-26T16:54:35.760Z,9.43
2019-05-26T16:57:08.501Z,4.95
2019-05-26T16:59:41.031Z,7.70
2019-05-26T17:02:13.970Z,10.40
2019-05-26T17:04:46.682Z,6.45
2019-05-26T17:07:19.172Z,7.60
2019-05-26T17:09:51.736Z,5.60
2019-05-26T17:12:24.490Z,5.67
2019-05-26T17:14:57.600Z,6.35
2019-05-26T17:17:30.181Z,5.65
2019-05-26T17:20:03.294Z,5.00
2019-05-26T17:22:37.460Z,8.85
2019-05-26T17:25:10.450Z,5.17
2019-05-26T17:27:43.176Z,6.60
2019-05-26T17:30:16.246Z,4.25
2019-05-26T17:32:48.795Z,6.22
2019-05-26T17:35:21.535Z,6.12
2019-05-26T17:37:55.551Z,7.60
2019-05-26T17:40:28.120Z,5.35
2019-05-26T17:43:00.636Z,6.08
2019-05-26T17:45:33.530Z,3.37
2019-05-26T17:48:06.091Z,4.72
2019-05-26T17:50:38.605Z,10.08
2019-05-26T17:53:11.015Z,6.28
2019-05-26T17:55:43.865Z,8.25
2019-05-26T17:58:16.376Z,6.17
2019-05-26T18:00:49.020Z,7.58
2019-05-26T18:03:21.710Z,6.08
2019-05-26T18:05:54.137Z,7.25
2019-05-26T18:08:27.797Z,8.73
2019-05-26T18:11:00.351Z,7.78
2019-05-26T18:13:32.839Z,16.95
2019-05-26T18:16:05.490Z,12.23
2019-05-26T18:18:38.139Z,7.58
2019-05-26T18:21:12.111Z,7.83
2019-05-26T18:23:44.722Z,15.93
2019-05-26T18:26:17.181Z,12.78
2019-05-26T18:28:50.031Z,12.43
2019-05-26T18:31:22.564Z,13.68
2019-05-26T18:33:55.371Z,4.95
2019-05-26T18:36:28.290Z,11.80
2019-05-26T18:39:01.205Z,11.12
2019-05-26T18:41:34.760Z,5.80
2019-05-26T18:44:07.686Z,6.85
2019-05-26T18:46:40.268Z,6.47
2019-05-26T18:49:13.834Z,7.50
2019-05-26T18:51:46.372Z,7.12
2019-05-26T18:54:19.065Z,10.65
2019-05-26T18:56:51.586Z,10.10
2019-05-26T18:59:24.185Z,9.63
2019-05-26T19:01:56.710Z,6.25
2019-05-26T19:04:29.310Z,9.45
2019-05-26T19:07:01.875Z,16.30
2019-05-26T19:09:34.760Z,8.83
2019-05-26T19:12:07.516Z,12.05
2019-05-26T19:14:40.672Z,18.23
2019-05-26T19:17:13.271Z,8.90
2019-05-26T19:19:46.010Z,13.13
2019-05-26T19:22:19.094Z,11.48
2019-05-26T19:24:51.795Z,11.68
2019-05-26T19:27:24.425Z,7.28
2019-05-26T19:29:57.246Z,16.85
2019-05-26T19:32:30.123Z,12.75
2019-05-26T19:35:03.055Z,16.07
2019-05-26T19:37:35.765Z,16.30
2019-05-26T19:40:11.017Z,20.62
2019-05-26T19:42:43.960Z,16.00
2019-05-26T19:45:16.998Z,19.98
2019-05-26T19:47:49.761Z,22.42
2019-05-26T19:50:22.306Z,18.45
2019-05-26T19:52:54.756Z,24.10
2019-05-26T19:55:27.450Z,32.05
2019-05-26T19:58:00.390Z,18.65
2019-05-26T20:00:33.122Z,17.62
2019-05-26T20:03:06.560Z,28.57
2019-05-26T20:05:39.281Z,25.77
2019-05-26T20:08:13.125Z,26.27
2019-05-26T20:10:45.965Z,20.00
2019-05-26T20:13:18.485Z,23.15
2019-05-26T20:15:51.311Z,24.32
2019-05-26T20:18:23.846Z,15.48
2019-05-26T20:20:56.675Z,13.90
2019-05-26T20:23:29.498Z,22.85
2019-05-26T20:26:02.050Z,20.12
2019-05-26T20:28:35.865Z,20.82
2019-05-26T20:31:08.425Z,20.75
2019-05-26T20:33:41.012Z,43.70
2019-05-26T20:36:13.596Z,22.87
2019-05-26T20:38:46.175Z,32.60
2019-05-26T20:41:18.770Z,32.23
2019-05-26T20:43:51.630Z,22.32
2019-05-26T20:46:24.483Z,22.30
2019-05-26T20:48:57.100Z,23.25
2019-05-26T20:51:29.840Z,16.40
2019-05-26T20:54:02.254Z,19.90
2019-05-26T20:56:34.815Z,22.52
2019-05-26T20:59:07.305Z,23.22
2019-05-26T21:01:40.046Z,21.30
2019-05-26T21:04:12.745Z,21.33
2019-05-26T21:06:45.670Z,22.90
2019-05-26T21:09:18.561Z,28.02
2019-05-26T21:11:51.425Z,24.77
2019-05-26T21:14:25.221Z,19.77
2019-05-26T21:16:57.960Z,27.17
2019-05-26T21:19:31.800Z,21.85
2019-05-26T21:22:04.621Z,26.48
2019-05-26T21:24:37.101Z,23.27
2019-05-26T21:27:09.646Z,22.80
2019-05-26T21:29:42.231Z,20.05
2019-05-26T21:32:14.922Z,23.27
2019-05-26T21:34:47.182Z,15.50
2019-05-26T21:37:20.040Z,20.15
2019-05-26T21:39:52.420Z,20.32
2019-05-26T21:42:24.890Z,19.52
2019-05-26T21:44:57.574Z,17.80
2019-05-26T21:47:30.186Z,18.55
2019-05-26T21:50:02.743Z,16.35
2019-05-26T21:52:35.514Z,17.62
2019-05-26T21:55:08.485Z,16.67
2019-05-26T21:57:41.071Z,14.60
2019-05-26T22:00:15.932Z,18.07
2019-05-26T22:02:51.306Z,13.83
2019-05-26T22:05:23.880Z,13.28
2019-05-26T22:07:56.257Z,13.62
2019-05-26T22:10:28.805Z,14.05
2019-05-26T22:13:01.329Z,11.15
2019-05-26T22:15:34.130Z,11.63
2019-05-26T22:18:07.010Z,14.23
2019-05-26T22:20:39.365Z,11.28
2019-05-26T22:23:12.270Z,14.65
2019-05-26T22:25:45.015Z,12.75
2019-05-26T22:28:17.591Z,10.40
2019-05-26T22:30:49.975Z,13.40
2019-05-26T22:33:22.450Z,12.45
2019-05-26T22:35:55.061Z,10.88
2019-05-26T22:38:27.807Z,14.75
2019-05-26T22:41:01.526Z,12.00
2019-05-26T22:43:34.001Z,11.57
2019-05-26T22:46:06.396Z,12.77
2019-05-26T22:48:38.835Z,10.40
2019-05-26T22:51:11.650Z,13.18
2019-05-26T22:53:43.992Z,13.53
2019-05-26T22:56:16.751Z,11.50
2019-05-26T22:58:49.476Z,11.77
2019-05-26T23:01:21.993Z,10.37
2019-05-26T23:03:54.625Z,10.43
2019-05-26T23:06:27.793Z,12.33
2019-05-26T23:09:00.093Z,14.10
2019-05-26T23:11:33.970Z,14.57
2019-05-26T23:14:07.902Z,13.98
2019-05-26T23:16:41.755Z,10.10
2019-05-26T23:19:19.472Z,11.60
2019-05-26T23:21:50.111Z,10.47
2019-05-26T23:24:23.825Z,9.73
2019-05-26T23:26:57.810Z,9.00
2019-05-26T23:29:31.665Z,11.07
2019-05-26T23:32:05.710Z,16.07
2019-05-26T23:34:39.477Z,14.77
2019-05-26T23:37:13.340Z,12.13
2019-05-26T23:39:47.095Z,10.57
2019-05-26T23:42:20.920Z,18.73
2019-05-26T23:44:53.326Z,14.40
2019-05-26T23:47:25.761Z,16.83
2019-05-26T23:49:58.131Z,10.33
2019-05-26T23:52:30.830Z,11.53
2019-05-26T23:55:04.400Z,9.50
2019-05-26T23:57:36.797Z,9.00
